createdAt,value
2019-05-21T00:00:03.815Z,317.60
2019-05-21T00:01:03.803Z,318.87
2019-05-21T00:02:03.783Z,317.97
2019-05-21T00:03:03.793Z,313.51
2019-05-21T00:04:03.769Z,318.46
2019-05-21T00:05:03.769Z,313.30
2019-05-21T00:06:03.735Z,313.32
2019-05-21T00:07:03.728Z,313.09
2019-05-21T00:08:03.740Z,312.44
2019-05-21T00:09:03.717Z,313.37
2019-05-21T00:10:03.746Z,312.83
2019-05-21T00:11:03.675Z,317.50
2019-05-21T00:12:03.732Z,317.82
2019-05-21T00:13:03.671Z,317.96
2019-05-21T00:14:03.667Z,317.49
2019-05-21T00:15:03.654Z,318.26
2019-05-21T00:16:03.629Z,312.86
2019-05-21T00:17:03.613Z,317.53
2019-05-21T00:18:03.602Z,313.03
2019-05-21T00:19:03.592Z,312.91
2019-05-21T00:20:03.605Z,312.57
2019-05-21T00:21:03.571Z,312.45
2019-05-21T00:22:03.584Z,318.42
2019-05-21T00:23:03.560Z,313.63
2019-05-21T00:24:03.564Z,317.45
2019-05-21T00:25:03.567Z,317.48
2019-05-21T00:26:03.513Z,317.85
2019-05-21T00:27:03.515Z,317.90
2019-05-21T00:28:03.512Z,317.38
2019-05-21T00:29:03.488Z,318.53
2019-05-21T00:30:03.501Z,312.71
2019-05-21T00:31:03.465Z,312.67
2019-05-21T00:32:03.467Z,313.16
2019-05-21T00:33:03.447Z,313.22
2019-05-21T00:34:03.432Z,312.71
2019-05-21T00:35:03.488Z,313.46
2019-05-21T00:36:03.429Z,312.85
2019-05-21T00:37:03.413Z,312.59
2019-05-21T00:38:03.389Z,312.15
2019-05-21T00:39:03.392Z,312.99
2019-05-21T00:40:03.353Z,312.49
2019-05-21T00:41:03.375Z,317.07
2019-05-21T00:42:03.378Z,317.50
2019-05-21T00:43:03.322Z,313.64
2019-05-21T00:44:03.325Z,317.36
2019-05-21T00:45:03.315Z,317.42
2019-05-21T00:46:03.308Z,311.98
2019-05-21T00:47:03.306Z,311.98
2019-05-21T00:48:05.748Z,312.25
2019-05-21T00:49:03.264Z,317.26
2019-05-21T00:50:03.295Z,317.24
2019-05-21T00:51:03.238Z,317.74
2019-05-21T00:52:07.928Z,317.84
2019-05-21T00:53:04.241Z,317.29
2019-05-21T00:54:03.222Z,317.37
2019-05-21T00:55:03.199Z,317.38
2019-05-21T00:56:03.220Z,312.52
2019-05-21T00:57:03.176Z,312.80
2019-05-21T00:58:03.175Z,313.03
2019-05-21T00:59:03.165Z,313.14
2019-05-21T01:00:03.185Z,313.09
2019-05-21T01:01:03.125Z,318.12
2019-05-21T01:02:03.131Z,317.95
2019-05-21T01:03:03.123Z,317.85
2019-05-21T01:04:03.115Z,317.94
2019-05-21T01:05:03.104Z,318.53
2019-05-21T01:06:03.093Z,317.77
2019-05-21T01:07:03.064Z,312.65
2019-05-21T01:08:03.069Z,313.75
2019-05-21T01:09:03.048Z,313.26
2019-05-21T01:10:03.072Z,313.49
2019-05-21T01:11:03.031Z,313.89
2019-05-21T01:12:03.018Z,313.33
2019-05-21T01:13:03.008Z,313.29
2019-05-21T01:14:03.013Z,317.43
2019-05-21T01:15:03.001Z,317.31
2019-05-21T01:16:02.972Z,313.29
2019-05-21T01:17:02.966Z,312.56
2019-05-21T01:18:02.950Z,312.52
2019-05-21T01:19:02.929Z,312.92
2019-05-21T01:20:02.919Z,312.30
2019-05-21T01:21:02.930Z,313.01
2019-05-21T01:22:02.905Z,312.22
2019-05-21T01:23:02.898Z,312.11
2019-05-21T01:24:02.901Z,316.87
2019-05-21T01:25:02.882Z,316.73
2019-05-21T01:26:02.850Z,311.99
2019-05-21T01:27:02.842Z,316.72
2019-05-21T01:28:02.830Z,311.65
2019-05-21T01:29:02.849Z,311.24
2019-05-21T01:30:02.814Z,311.85
2019-05-21T01:31:02.803Z,312.45
2019-05-21T01:32:03.250Z,311.35
2019-05-21T01:33:02.773Z,316.17
2019-05-21T01:34:02.788Z,316.88
2019-05-21T01:35:15.959Z,317.11
2019-05-21T01:36:03.748Z,316.84
2019-05-21T01:37:02.724Z,312.72
2019-05-21T01:38:02.726Z,316.97
2019-05-21T01:39:02.709Z,311.73
2019-05-21T01:40:02.713Z,311.92
2019-05-21T01:41:02.697Z,311.88
2019-05-21T01:42:02.683Z,312.54
2019-05-21T01:43:03.527Z,311.61
2019-05-21T01:44:02.744Z,312.23
2019-05-21T01:45:02.674Z,311.23
2019-05-21T01:46:02.648Z,317.10
2019-05-21T01:47:02.624Z,316.37
2019-05-21T01:48:02.637Z,316.87
2019-05-21T01:49:02.599Z,311.83
2019-05-21T01:50:02.610Z,311.60
2019-05-21T01:51:02.605Z,316.27
2019-05-21T01:52:02.589Z,312.01
2019-05-21T01:53:03.013Z,312.14
2019-05-21T01:54:02.575Z,311.42
2019-05-21T01:55:02.571Z,317.44
2019-05-21T01:56:02.538Z,316.98
2019-05-21T01:57:02.524Z,316.89
2019-05-21T01:58:02.499Z,316.58
2019-05-21T01:59:02.492Z,316.95
2019-05-21T02:00:02.503Z,316.41
2019-05-21T02:01:02.475Z,316.66
2019-05-21T02:02:02.480Z,311.72
2019-05-21T02:03:02.448Z,311.98
2019-05-21T02:04:02.430Z,312.08
2019-05-21T02:05:02.441Z,312.69
2019-05-21T02:06:02.432Z,311.92
2019-05-21T02:07:02.422Z,311.37
2019-05-21T02:08:02.401Z,317.48
2019-05-21T02:09:02.384Z,316.23
2019-05-21T02:10:02.372Z,312.54
2019-05-21T02:11:02.372Z,312.60
2019-05-21T02:12:02.337Z,312.06
2019-05-21T02:13:02.342Z,312.65
2019-05-21T02:14:02.332Z,312.29
2019-05-21T02:15:02.333Z,313.38
2019-05-21T02:16:02.317Z,316.94
2019-05-21T02:17:02.295Z,317.21
2019-05-21T02:18:02.277Z,316.61
2019-05-21T02:19:02.451Z,312.51
2019-05-21T02:20:02.261Z,312.39
2019-05-21T02:21:02.272Z,312.52
2019-05-21T02:22:02.225Z,312.05
2019-05-21T02:23:02.220Z,311.98
2019-05-21T02:24:02.226Z,312.38
2019-05-21T02:25:02.207Z,318.52
2019-05-21T02:26:02.223Z,316.89
2019-05-21T02:27:02.197Z,316.61
2019-05-21T02:28:02.172Z,312.73
2019-05-21T02:29:02.582Z,311.58
2019-05-21T02:30:02.605Z,311.93
2019-05-21T02:31:02.147Z,311.63
2019-05-21T02:32:02.124Z,317.31
2019-05-21T02:33:02.131Z,316.79
2019-05-21T02:34:02.139Z,316.60
2019-05-21T02:35:02.094Z,312.49
2019-05-21T02:36:02.149Z,311.57
2019-05-21T02:37:05.866Z,312.77
2019-05-21T02:38:02.070Z,312.66
2019-05-21T02:39:02.074Z,312.10
2019-05-21T02:40:02.054Z,311.81
2019-05-21T02:41:02.033Z,311.79
2019-05-21T02:42:02.056Z,317.11
2019-05-21T02:43:02.014Z,312.23
2019-05-21T02:44:01.982Z,312.51
2019-05-21T02:45:02.031Z,312.14
2019-05-21T02:46:02.001Z,311.80
2019-05-21T02:47:01.998Z,317.41
2019-05-21T02:48:01.971Z,311.86
2019-05-21T02:49:01.953Z,311.89
2019-05-21T02:50:01.961Z,316.96
2019-05-21T02:51:01.942Z,312.53
2019-05-21T02:52:01.942Z,312.24
2019-05-21T02:53:01.914Z,311.79
2019-05-21T02:54:01.878Z,311.92
2019-05-21T02:55:01.920Z,311.50
2019-05-21T02:56:01.864Z,312.03
2019-05-21T02:57:01.866Z,311.36
2019-05-21T02:58:01.840Z,312.74
2019-05-21T02:59:01.842Z,312.83
2019-05-21T03:00:01.827Z,312.48
2019-05-21T03:01:01.807Z,312.06
2019-05-21T03:02:01.800Z,313.04
2019-05-21T03:03:01.799Z,312.81
2019-05-21T03:04:01.778Z,311.90
2019-05-21T03:05:01.795Z,311.60
2019-05-21T03:06:13.185Z,312.54
2019-05-21T03:07:02.753Z,312.30
2019-05-21T03:08:01.772Z,312.65
2019-05-21T03:09:01.743Z,312.15
2019-05-21T03:10:01.754Z,312.94
2019-05-21T03:11:01.707Z,312.24
2019-05-21T03:12:01.708Z,312.18
2019-05-21T03:13:01.672Z,312.25
2019-05-21T03:14:01.664Z,312.67
2019-05-21T03:15:01.655Z,311.63
2019-05-21T03:16:01.642Z,317.28
2019-05-21T03:17:01.658Z,316.83
2019-05-21T03:18:01.643Z,311.82
2019-05-21T03:19:01.629Z,317.56
2019-05-21T03:20:01.672Z,313.16
2019-05-21T03:21:01.585Z,312.89
2019-05-21T03:22:01.602Z,312.35
2019-05-21T03:23:01.573Z,312.69
2019-05-21T03:24:01.568Z,313.29
2019-05-21T03:25:02.800Z,313.36
2019-05-21T03:26:01.530Z,317.11
2019-05-21T03:27:01.529Z,312.52
2019-05-21T03:28:01.515Z,313.15
2019-05-21T03:29:01.532Z,313.53
2019-05-21T03:30:01.498Z,312.74
2019-05-21T03:31:01.496Z,313.06
2019-05-21T03:32:01.499Z,313.78
2019-05-21T03:33:01.517Z,312.96
2019-05-21T03:34:01.471Z,312.85
2019-05-21T03:35:01.446Z,318.36
2019-05-21T03:36:01.410Z,317.94
2019-05-21T03:37:01.421Z,313.41
2019-05-21T03:38:01.401Z,313.92
2019-05-21T03:39:01.410Z,312.80
2019-05-21T03:40:01.400Z,312.22
2019-05-21T03:41:01.372Z,312.90
2019-05-21T03:42:01.382Z,313.80
2019-05-21T03:43:01.355Z,317.88
2019-05-21T03:44:01.334Z,318.66
2019-05-21T03:45:01.394Z,313.23
2019-05-21T03:46:01.318Z,317.63
2019-05-21T03:47:01.403Z,313.01
2019-05-21T03:48:01.282Z,313.70
2019-05-21T03:49:01.282Z,313.49
2019-05-21T03:50:01.293Z,318.67
2019-05-21T03:51:01.260Z,319.11
2019-05-21T03:52:01.252Z,318.93
2019-05-21T03:53:01.232Z,319.27
2019-05-21T03:54:01.225Z,314.40
2019-05-21T03:55:03.107Z,318.52
2019-05-21T03:56:01.208Z,314.42
2019-05-21T03:57:01.205Z,314.20
2019-05-21T03:58:01.168Z,315.46
2019-05-21T03:59:01.164Z,313.06
2019-05-21T04:00:01.246Z,317.82
2019-05-21T04:01:01.136Z,318.42
2019-05-21T04:02:01.146Z,318.12
2019-05-21T04:03:01.122Z,318.24
2019-05-21T04:04:01.154Z,314.39
2019-05-21T04:05:01.109Z,313.88
2019-05-21T04:06:01.098Z,314.77
2019-05-21T04:07:01.079Z,315.45
2019-05-21T04:08:01.080Z,315.14
2019-05-21T04:09:01.066Z,314.48
2019-05-21T04:10:01.054Z,315.42
2019-05-21T04:11:01.024Z,320.29
2019-05-21T04:12:01.028Z,319.85
2019-05-21T04:13:01.019Z,320.12
2019-05-21T04:14:01.003Z,319.74
2019-05-21T04:15:01.025Z,319.32
2019-05-21T04:16:00.994Z,315.50
2019-05-21T04:17:00.982Z,314.95
2019-05-21T04:18:00.989Z,314.16
2019-05-21T04:19:00.966Z,313.58
2019-05-21T04:20:00.937Z,313.62
2019-05-21T04:21:00.944Z,313.45
2019-05-21T04:22:00.943Z,314.95
2019-05-21T04:23:00.927Z,314.30
2019-05-21T04:24:00.893Z,318.38
2019-05-21T04:25:00.871Z,319.64
2019-05-21T04:26:00.872Z,314.22
2019-05-21T04:27:00.896Z,313.50
2019-05-21T04:28:00.857Z,314.25
2019-05-21T04:29:00.835Z,314.65
2019-05-21T04:30:00.821Z,319.12
2019-05-21T04:31:00.803Z,318.99
2019-05-21T04:32:00.803Z,319.36
2019-05-21T04:33:00.809Z,317.35
2019-05-21T04:34:00.786Z,318.51
2019-05-21T04:35:00.777Z,317.10
2019-05-21T04:36:00.769Z,318.04
2019-05-21T04:37:10.480Z,318.53
2019-05-21T04:38:01.748Z,314.52
2019-05-21T04:39:00.721Z,318.68
2019-05-21T04:40:00.786Z,318.75
2019-05-21T04:41:00.719Z,318.41
2019-05-21T04:42:00.701Z,319.31
2019-05-21T04:43:02.289Z,318.94
2019-05-21T04:44:00.681Z,318.57
2019-05-21T04:45:00.656Z,318.27
2019-05-21T04:46:00.669Z,318.69
2019-05-21T04:47:00.656Z,317.56
2019-05-21T04:48:00.637Z,318.20
2019-05-21T04:49:00.642Z,319.17
2019-05-21T04:50:00.583Z,318.57
2019-05-21T04:51:00.585Z,318.40
2019-05-21T04:52:00.571Z,318.80
2019-05-21T04:53:00.579Z,319.17
2019-05-21T04:54:00.582Z,319.51
2019-05-21T04:55:00.551Z,314.67
2019-05-21T04:56:00.533Z,319.62
2019-05-21T04:57:00.509Z,319.52
2019-05-21T04:58:00.515Z,319.22
2019-05-21T04:59:00.514Z,319.08
2019-05-21T05:00:00.485Z,318.20
2019-05-21T05:01:00.477Z,320.28
2019-05-21T05:02:00.459Z,319.04
2019-05-21T05:03:00.461Z,318.24
2019-05-21T05:04:00.457Z,319.02
2019-05-21T05:05:00.444Z,319.22
2019-05-21T05:06:00.419Z,319.17
2019-05-21T05:07:00.423Z,317.07
2019-05-21T05:08:00.422Z,318.10
2019-05-21T05:09:00.388Z,319.34
2019-05-21T05:10:00.376Z,318.51
2019-05-21T05:11:00.347Z,318.55
2019-05-21T05:12:00.364Z,318.61
2019-05-21T05:13:00.366Z,319.40
2019-05-21T05:14:00.353Z,319.71
2019-05-21T05:15:00.310Z,319.65
2019-05-21T05:16:03.754Z,319.37
2019-05-21T05:17:00.303Z,320.00
2019-05-21T05:18:00.301Z,319.46
2019-05-21T05:19:00.298Z,315.91
2019-05-21T05:20:00.274Z,318.06
2019-05-21T05:21:00.252Z,317.09
2019-05-21T05:22:00.238Z,316.12
2019-05-21T05:23:00.237Z,317.57
2019-05-21T05:24:00.217Z,317.72
2019-05-21T05:25:00.218Z,317.29
2019-05-21T05:26:00.203Z,318.27
2019-05-21T05:27:00.191Z,320.85
2019-05-21T05:28:00.199Z,317.31
2019-05-21T05:29:00.165Z,318.63
2019-05-21T05:30:00.156Z,316.76
2019-05-21T05:31:00.145Z,319.53
2019-05-21T05:32:00.132Z,316.37
2019-05-21T05:33:00.136Z,315.60
2019-05-21T05:34:00.104Z,319.28
2019-05-21T05:35:00.119Z,311.04
2019-05-21T05:36:00.091Z,312.69
2019-05-21T05:37:00.084Z,312.43
2019-05-21T05:38:00.067Z,311.94
2019-05-21T05:39:00.063Z,313.10
2019-05-21T05:40:00.039Z,311.71
2019-05-21T05:41:00.033Z,311.60
2019-05-21T05:42:00.015Z,311.76
2019-05-21T05:43:00.018Z,313.28
2019-05-21T05:44:00.013Z,313.93
2019-05-21T05:45:00.115Z,312.32
2019-05-21T05:45:59.980Z,317.87
2019-05-21T05:46:59.971Z,309.41
2019-05-21T05:47:59.954Z,311.18
2019-05-21T05:49:01.768Z,315.05
2019-05-21T05:49:59.945Z,311.04
2019-05-21T05:50:59.941Z,310.47
2019-05-21T05:51:59.917Z,311.60
2019-05-21T05:52:59.899Z,312.17
2019-05-21T05:53:59.896Z,313.09
2019-05-21T05:54:59.879Z,313.04
2019-05-21T05:55:59.866Z,314.05
2019-05-21T05:56:59.939Z,315.87
2019-05-21T05:57:59.848Z,310.81
2019-05-21T05:58:59.859Z,315.44
2019-05-21T05:59:59.831Z,313.04
2019-05-21T06:00:59.812Z,312.54
2019-05-21T06:01:59.801Z,309.49
2019-05-21T06:02:59.784Z,305.48
2019-05-21T06:03:59.794Z,307.28
2019-05-21T06:04:59.774Z,309.26
2019-05-21T06:05:59.750Z,316.32
2019-05-21T06:06:59.748Z,313.86
2019-05-21T06:08:00.620Z,311.23
2019-05-21T06:08:59.760Z,305.73
2019-05-21T06:09:59.723Z,315.24
2019-05-21T06:10:59.700Z,307.42
2019-05-21T06:11:59.751Z,309.00
2019-05-21T06:12:59.672Z,309.98
2019-05-21T06:13:59.684Z,311.61
2019-05-21T06:14:59.665Z,310.31
2019-05-21T06:15:59.654Z,310.13
2019-05-21T06:16:59.643Z,311.05
2019-05-21T06:17:59.640Z,303.88
2019-05-21T06:18:59.621Z,309.59
2019-05-21T06:20:00.618Z,299.39
2019-05-21T06:20:59.597Z,307.69
2019-05-21T06:21:59.591Z,304.44
2019-05-21T06:22:59.581Z,314.48
2019-05-21T06:23:59.585Z,317.18
2019-05-21T06:24:59.592Z,303.48
2019-05-21T06:25:59.533Z,318.73
2019-05-21T06:26:59.526Z,308.28
2019-05-21T06:27:59.526Z,310.37
2019-05-21T06:28:59.517Z,304.46
2019-05-21T06:29:59.493Z,309.86
2019-05-21T06:30:59.491Z,305.61
2019-05-21T06:31:59.474Z,305.10
2019-05-21T06:32:59.462Z,309.65
2019-05-21T06:33:59.457Z,310.27
2019-05-21T06:34:59.451Z,317.86
2019-05-21T06:35:59.441Z,308.19
2019-05-21T06:36:59.421Z,307.95
2019-05-21T06:38:16.188Z,309.32
2019-05-21T06:39:00.415Z,309.08
2019-05-21T06:39:59.387Z,301.25
2019-05-21T06:40:59.379Z,303.64
2019-05-21T06:41:59.362Z,305.67
2019-05-21T06:42:59.368Z,304.22
2019-05-21T06:43:59.369Z,304.35
2019-05-21T06:44:59.341Z,304.30
2019-05-21T06:45:59.317Z,308.28
2019-05-21T06:46:59.323Z,303.53
2019-05-21T06:47:59.296Z,301.02
2019-05-21T06:48:59.308Z,305.87
2019-05-21T06:49:59.284Z,297.88
2019-05-21T06:50:59.280Z,303.18
2019-05-21T06:51:59.290Z,303.26
2019-05-21T06:52:59.277Z,307.24
2019-05-21T06:53:59.270Z,310.62
2019-05-21T06:54:59.287Z,307.43
2019-05-21T06:55:59.225Z,308.78
2019-05-21T06:56:59.213Z,301.24
2019-05-21T06:57:59.193Z,304.61
2019-05-21T06:58:59.202Z,304.74
2019-05-21T06:59:59.347Z,308.94
2019-05-21T07:00:59.188Z,300.53
2019-05-21T07:01:59.157Z,302.15
2019-05-21T07:02:59.147Z,302.65
2019-05-21T07:03:59.166Z,307.13
2019-05-21T07:04:59.129Z,298.40
2019-05-21T07:05:59.647Z,300.81
2019-05-21T07:06:59.110Z,295.16
2019-05-21T07:07:59.110Z,306.54
2019-05-21T07:08:59.100Z,299.46
2019-05-21T07:09:59.065Z,305.43
2019-05-21T07:10:59.055Z,304.19
2019-05-21T07:11:59.060Z,305.69
2019-05-21T07:12:59.051Z,300.24
2019-05-21T07:13:59.065Z,306.93
2019-05-21T07:14:59.051Z,305.87
2019-05-21T07:15:59.019Z,303.79
2019-05-21T07:16:58.995Z,306.31
2019-05-21T07:17:58.989Z,299.56
2019-05-21T07:18:58.996Z,304.31
2019-05-21T07:19:58.967Z,311.92
2019-05-21T07:20:58.962Z,300.85
2019-05-21T07:22:12.014Z,302.67
2019-05-21T07:22:59.969Z,310.84
2019-05-21T07:23:58.933Z,312.32
2019-05-21T07:24:58.927Z,310.34
2019-05-21T07:25:58.909Z,305.64
2019-05-21T07:26:58.923Z,310.99
2019-05-21T07:27:58.897Z,318.09
2019-05-21T07:28:58.917Z,313.43
2019-05-21T07:29:58.867Z,303.04
2019-05-21T07:30:58.849Z,295.98
2019-05-21T07:31:58.847Z,302.35
2019-05-21T07:32:58.870Z,313.51
2019-05-21T07:33:58.859Z,305.25
2019-05-21T07:34:58.818Z,299.57
2019-05-21T07:35:58.811Z,311.45
2019-05-21T07:36:58.797Z,307.37
2019-05-21T07:37:58.821Z,313.95
2019-05-21T07:38:58.775Z,307.37
2019-05-21T07:39:58.776Z,300.16
2019-05-21T07:40:58.830Z,300.61
2019-05-21T07:41:58.741Z,302.33
2019-05-21T07:42:58.758Z,310.12
2019-05-21T07:43:58.730Z,298.47
2019-05-21T07:44:58.732Z,300.67
2019-05-21T07:45:58.704Z,304.74
2019-05-21T07:46:58.702Z,302.99
2019-05-21T07:47:58.682Z,289.98
2019-05-21T07:48:58.659Z,308.38
2019-05-21T07:49:58.661Z,304.13
2019-05-21T07:50:58.639Z,304.22
2019-05-21T07:51:58.639Z,311.69
2019-05-21T07:52:58.689Z,300.05
2019-05-21T07:53:58.628Z,310.78
2019-05-21T07:54:58.615Z,307.65
2019-05-21T07:55:58.595Z,302.04
2019-05-21T07:56:58.602Z,295.55
2019-05-21T07:57:58.585Z,313.06
2019-05-21T07:58:58.572Z,305.74
2019-05-21T07:59:58.566Z,311.64
2019-05-21T08:01:01.329Z,304.34
2019-05-21T08:01:58.534Z,308.40
2019-05-21T08:02:58.544Z,305.12
2019-05-21T08:03:58.514Z,315.69
2019-05-21T08:04:58.527Z,315.55
2019-05-21T08:05:58.500Z,319.99
2019-05-21T08:06:58.498Z,308.68
2019-05-21T08:07:58.478Z,321.01
2019-05-21T08:09:12.709Z,299.40
2019-05-21T08:09:59.480Z,313.94
2019-05-21T08:10:58.448Z,306.32
2019-05-21T08:11:58.432Z,314.56
2019-05-21T08:12:58.432Z,309.64
2019-05-21T08:13:58.417Z,305.81
2019-05-21T08:14:58.419Z,309.63
2019-05-21T08:15:58.397Z,308.87
2019-05-21T08:16:58.412Z,306.52
2019-05-21T08:17:58.379Z,299.11
2019-05-21T08:18:58.378Z,309.42
2019-05-21T08:20:08.800Z,311.90
2019-05-21T08:20:59.345Z,290.83
2019-05-21T08:21:58.341Z,294.81
2019-05-21T08:22:58.321Z,296.15
2019-05-21T08:23:58.318Z,302.21
2019-05-21T08:24:58.338Z,309.73
2019-05-21T08:25:58.303Z,300.41
2019-05-21T08:26:58.294Z,287.53
2019-05-21T08:27:58.280Z,299.64
2019-05-21T08:28:58.300Z,308.73
2019-05-21T08:29:58.278Z,304.20
2019-05-21T08:31:01.586Z,300.17
2019-05-21T08:31:58.245Z,301.58
2019-05-21T08:32:58.228Z,296.59
2019-05-21T08:33:58.220Z,293.82
2019-05-21T08:34:58.226Z,290.07
2019-05-21T08:35:58.203Z,300.11
2019-05-21T08:36:58.222Z,296.69
2019-05-21T08:37:58.194Z,297.98
2019-05-21T08:38:58.179Z,289.18
2019-05-21T08:39:58.190Z,311.01
2019-05-21T08:40:58.154Z,319.63
2019-05-21T08:41:58.149Z,311.34
2019-05-21T08:42:58.147Z,306.30
2019-05-21T08:43:58.140Z,294.06
2019-05-21T08:44:58.153Z,307.80
2019-05-21T08:45:58.115Z,297.02
2019-05-21T08:46:58.100Z,298.99
2019-05-21T08:47:58.084Z,309.21
2019-05-21T08:48:58.081Z,294.64
2019-05-21T08:49:58.071Z,307.88
2019-05-21T08:50:58.074Z,303.97
2019-05-21T08:51:58.054Z,309.83
2019-05-21T08:52:58.031Z,281.98
2019-05-21T08:53:58.029Z,296.29
2019-05-21T08:54:58.017Z,298.39
2019-05-21T08:55:58.020Z,296.78
2019-05-21T08:56:58.006Z,308.52
2019-05-21T08:58:06.924Z,302.06
2019-05-21T08:58:58.977Z,305.91
2019-05-21T08:59:57.972Z,300.12
2019-05-21T09:00:57.984Z,299.21
2019-05-21T09:01:59.045Z,305.58
2019-05-21T09:02:57.947Z,302.51
2019-05-21T09:03:57.939Z,294.65
2019-05-21T09:04:57.925Z,314.91
2019-05-21T09:05:57.921Z,299.28
2019-05-21T09:06:57.903Z,312.46
2019-05-21T09:07:57.888Z,307.75
2019-05-21T09:08:57.895Z,297.86
2019-05-21T09:09:57.885Z,305.49
2019-05-21T09:10:57.883Z,302.43
2019-05-21T09:11:57.859Z,306.85
2019-05-21T09:12:57.848Z,291.95
2019-05-21T09:13:57.847Z,293.09
2019-05-21T09:14:57.832Z,298.77
2019-05-21T09:15:57.920Z,294.97
2019-05-21T09:16:57.814Z,293.75
2019-05-21T09:17:57.795Z,313.86
2019-05-21T09:18:57.803Z,298.55
2019-05-21T09:19:57.792Z,304.35
2019-05-21T09:20:57.782Z,299.48
2019-05-21T09:21:57.783Z,305.83
2019-05-21T09:22:57.753Z,304.44
2019-05-21T09:23:57.751Z,300.95
2019-05-21T09:24:57.718Z,298.34
2019-05-21T09:25:57.714Z,303.33
2019-05-21T09:26:57.733Z,301.14
2019-05-21T09:27:57.699Z,300.14
2019-05-21T09:28:57.693Z,299.21
2019-05-21T09:29:57.697Z,304.31
2019-05-21T09:31:01.465Z,309.81
2019-05-21T09:31:57.667Z,302.10
2019-05-21T09:32:57.656Z,295.68
2019-05-21T09:33:57.665Z,306.75
2019-05-21T09:34:57.657Z,299.93
2019-05-21T09:35:57.626Z,293.82
2019-05-21T09:36:57.634Z,303.50
2019-05-21T09:37:57.591Z,300.05
2019-05-21T09:38:57.607Z,288.95
2019-05-21T09:39:57.583Z,302.92
2019-05-21T09:40:57.586Z,295.72
2019-05-21T09:41:57.571Z,305.32
2019-05-21T09:42:57.570Z,302.25
2019-05-21T09:43:57.550Z,294.91
2019-05-21T09:44:57.528Z,298.84
2019-05-21T09:45:57.521Z,306.47
2019-05-21T09:46:57.520Z,295.12
2019-05-21T09:47:57.552Z,295.30
2019-05-21T09:48:57.489Z,300.25
2019-05-21T09:49:57.480Z,300.70
2019-05-21T09:50:57.474Z,312.70
2019-05-21T09:51:57.533Z,305.51
2019-05-21T09:52:57.482Z,299.44
2019-05-21T09:53:57.453Z,299.57
2019-05-21T09:54:57.460Z,301.21
2019-05-21T09:55:57.423Z,298.60
2019-05-21T09:56:57.411Z,306.44
2019-05-21T09:57:57.412Z,305.45
2019-05-21T09:58:57.459Z,304.48
2019-05-21T09:59:57.381Z,308.28
2019-05-21T10:00:57.389Z,298.29
2019-05-21T10:01:57.373Z,307.78
2019-05-21T10:02:57.370Z,309.30
2019-05-21T10:03:57.359Z,311.78
2019-05-21T10:04:57.334Z,297.42
2019-05-21T10:05:57.329Z,305.28
2019-05-21T10:06:57.327Z,303.56
2019-05-21T10:07:57.310Z,304.68
2019-05-21T10:08:57.297Z,301.27
2019-05-21T10:09:57.277Z,301.50
2019-05-21T10:10:57.263Z,298.14
2019-05-21T10:11:57.262Z,300.69
2019-05-21T10:12:57.270Z,308.16
2019-05-21T10:13:57.252Z,310.41
2019-05-21T10:14:57.240Z,284.95
2019-05-21T10:16:01.189Z,301.51
2019-05-21T10:16:57.217Z,295.88
2019-05-21T10:17:57.207Z,293.21
2019-05-21T10:18:57.255Z,295.68
2019-05-21T10:19:58.997Z,299.84
2019-05-21T10:20:57.188Z,307.80
2019-05-21T10:21:57.285Z,303.82
2019-05-21T10:22:57.155Z,295.14
2019-05-21T10:23:57.169Z,303.75
2019-05-21T10:24:57.148Z,309.47
2019-05-21T10:25:57.131Z,309.40
2019-05-21T10:26:57.127Z,299.13
2019-05-21T10:27:57.121Z,300.72
2019-05-21T10:28:57.104Z,298.73
2019-05-21T10:29:57.089Z,293.91
2019-05-21T10:30:57.080Z,303.87
2019-05-21T10:31:57.073Z,288.53
2019-05-21T10:32:57.059Z,308.78
2019-05-21T10:33:57.072Z,303.45
2019-05-21T10:34:57.044Z,295.47
2019-05-21T10:35:57.035Z,296.79
2019-05-21T10:36:57.034Z,292.12
2019-05-21T10:37:57.031Z,306.20
2019-05-21T10:38:57.053Z,300.47
2019-05-21T10:39:57.002Z,299.63
2019-05-21T10:40:56.969Z,302.46
2019-05-21T10:41:56.961Z,304.22
2019-05-21T10:42:56.960Z,302.54
2019-05-21T10:43:56.960Z,307.32
2019-05-21T10:44:56.966Z,300.48
2019-05-21T10:45:56.952Z,303.29
2019-05-21T10:46:56.925Z,303.74
2019-05-21T10:47:56.923Z,307.92
2019-05-21T10:48:56.901Z,306.50
2019-05-21T10:49:56.895Z,307.17
2019-05-21T10:50:56.885Z,304.84
2019-05-21T10:51:56.887Z,307.23
2019-05-21T10:52:56.869Z,312.17
2019-05-21T10:53:56.856Z,304.93
2019-05-21T10:54:56.856Z,304.43
2019-05-21T10:55:56.823Z,310.80
2019-05-21T10:56:56.824Z,312.73
2019-05-21T10:57:56.808Z,309.08
2019-05-21T10:58:56.804Z,311.52
2019-05-21T10:59:56.789Z,310.13
2019-05-21T11:00:56.808Z,312.53
2019-05-21T11:01:56.776Z,306.62
2019-05-21T11:02:56.790Z,307.83
2019-05-21T11:03:56.741Z,310.07
2019-05-21T11:04:56.746Z,304.95
2019-05-21T11:06:09.554Z,312.46
2019-05-21T11:06:57.717Z,318.18
2019-05-21T11:07:56.721Z,303.24
2019-05-21T11:08:56.705Z,300.59
2019-05-21T11:09:56.726Z,305.95
2019-05-21T11:10:56.688Z,301.63
2019-05-21T11:11:56.677Z,306.30
2019-05-21T11:12:56.659Z,308.03
2019-05-21T11:13:56.646Z,303.62
2019-05-21T11:14:56.643Z,306.43
2019-05-21T11:15:56.898Z,304.28
2019-05-21T11:16:56.631Z,301.94
2019-05-21T11:18:09.599Z,304.48
2019-05-21T11:18:57.602Z,305.60
2019-05-21T11:19:56.599Z,313.98
2019-05-21T11:20:56.587Z,307.17
2019-05-21T11:21:56.558Z,306.94
2019-05-21T11:22:58.457Z,301.81
2019-05-21T11:23:56.615Z,306.09
2019-05-21T11:24:56.544Z,313.28
2019-05-21T11:25:56.525Z,306.33
2019-05-21T11:26:56.529Z,308.51
2019-05-21T11:27:56.496Z,301.37
2019-05-21T11:28:56.511Z,309.57
2019-05-21T11:29:56.487Z,307.81
2019-05-21T11:30:56.502Z,307.34
2019-05-21T11:31:57.826Z,307.31
2019-05-21T11:32:56.443Z,312.71
2019-05-21T11:33:56.442Z,311.69
2019-05-21T11:34:56.429Z,304.03
2019-05-21T11:35:56.426Z,304.27
2019-05-21T11:36:56.441Z,307.00
2019-05-21T11:37:56.409Z,305.57
2019-05-21T11:38:56.383Z,305.61
2019-05-21T11:39:56.380Z,303.31
2019-05-21T11:40:56.389Z,314.40
2019-05-21T11:41:56.395Z,300.81
2019-05-21T11:42:56.369Z,305.95
2019-05-21T11:43:56.356Z,304.61
2019-05-21T11:44:56.352Z,309.88
2019-05-21T11:45:56.314Z,307.56
2019-05-21T11:46:56.312Z,312.08
2019-05-21T11:47:56.304Z,297.06
2019-05-21T11:48:56.302Z,305.40
2019-05-21T11:49:56.294Z,308.43
2019-05-21T11:50:56.285Z,303.95
2019-05-21T11:51:56.275Z,302.41
2019-05-21T11:52:56.268Z,309.03
2019-05-21T11:53:56.237Z,303.42
2019-05-21T11:54:56.253Z,303.51
2019-05-21T11:55:56.229Z,297.93
2019-05-21T11:56:56.209Z,304.04
2019-05-21T11:57:56.232Z,298.09
2019-05-21T11:58:56.182Z,301.05
2019-05-21T11:59:56.212Z,303.60
2019-05-21T12:00:56.186Z,310.34
2019-05-21T12:01:56.172Z,303.89
2019-05-21T12:02:56.169Z,311.05
2019-05-21T12:03:56.152Z,304.89
2019-05-21T12:04:56.138Z,309.81
2019-05-21T12:05:56.112Z,311.56
2019-05-21T12:06:56.109Z,308.42
2019-05-21T12:07:56.118Z,301.01
2019-05-21T12:08:57.323Z,309.25
2019-05-21T12:09:56.087Z,306.39
2019-05-21T12:10:56.090Z,309.03
2019-05-21T12:11:56.062Z,305.16
2019-05-21T12:12:56.068Z,305.36
2019-05-21T12:13:56.043Z,307.12
2019-05-21T12:14:56.037Z,309.02
2019-05-21T12:15:56.028Z,302.45
2019-05-21T12:16:56.013Z,308.29
2019-05-21T12:17:56.022Z,298.30
2019-05-21T12:18:56.022Z,306.42
2019-05-21T12:19:55.977Z,305.22
2019-05-21T12:20:55.978Z,312.60
2019-05-21T12:21:55.956Z,309.11
2019-05-21T12:22:55.963Z,309.33
2019-05-21T12:23:55.944Z,308.25
2019-05-21T12:24:55.923Z,312.11
2019-05-21T12:25:55.918Z,306.11
2019-05-21T12:26:55.910Z,316.83
2019-05-21T12:27:55.897Z,304.34